Time;durP1;ratioP1;P1;durP2;ratioP2;P2;SDS_P1;SDS_P2;PMS_P1;PMS_P2;Temp;Humidity;BMP_temperature;BMP_pressure;BME280_temperature;BME280_humidity;BME280_pressure;Samples;Min_cycle;Max_cycle;Signal;HPM_P1;HPM_P2
2022/08/14 00:01:59;;;;;;;6.13;2.80;;;17.60;93.90;;;;;;5092339;28;20418;-83
2022/08/14 00:04:24;;;;;;;3.60;3.30;;;17.50;94.90;;;;;;5092637;28;20177;-83
2022/08/14 00:06:49;;;;;;;3.40;3.10;;;17.30;95.80;;;;;;5095310;28;20430;-83
2022/08/14 00:09:15;;;;;;;8.23;3.27;;;17.30;96.20;;;;;;5096373;28;20184;-82
2022/08/14 00:11:40;;;;;;;4.00;3.17;;;17.30;96.50;;;;;;5098631;28;20184;-83
2022/08/14 00:14:06;;;;;;;3.30;3.00;;;17.30;97.40;;;;;;5099762;27;20180;-83
2022/08/14 00:16:32;;;;;;;4.33;3.67;;;17.20;97.60;;;;;;5095803;28;20763;-83
2022/08/14 00:18:58;;;;;;;3.67;3.37;;;17.10;98.00;;;;;;5088626;28;20238;-83
2022/08/14 00:21:23;;;;;;;3.50;3.03;;;17.10;98.80;;;;;;5091409;28;20236;-83
2022/08/14 00:23:50;;;;;;;3.60;2.90;;;17.00;98.80;;;;;;5097015;28;20986;-83
2022/08/14 00:26:16;;;;;;;3.80;3.13;;;17.10;98.70;;;;;;5099454;28;20184;-82
2022/08/14 00:28:41;;;;;;;5.33;2.77;;;17.00;98.70;;;;;;5091214;28;20912;-83
2022/08/14 00:31:07;;;;;;;4.20;3.23;;;17.00;99.20;;;;;;5094084;28;20182;-82
2022/08/14 00:33:33;;;;;;;2.73;2.43;;;17.00;99.30;;;;;;5087754;28;20234;-82
2022/08/14 00:35:58;;;;;;;4.47;3.23;;;17.00;99.60;;;;;;5081923;28;20990;-83
2022/08/14 00:38:24;;;;;;;3.93;3.50;;;17.00;99.90;;;;;;5091881;28;20237;-83
2022/08/14 00:40:50;;;;;;;8.17;3.17;;;17.00;99.90;;;;;;5089330;28;20199;-83
2022/08/14 00:43:16;;;;;;;4.60;3.30;;;16.90;99.90;;;;;;5088831;28;20508;-83
2022/08/14 00:45:42;;;;;;;7.57;3.20;;;16.90;99.90;;;;;;5082437;28;20453;-83
2022/08/14 00:48:09;;;;;;;3.70;3.40;;;16.90;99.90;;;;;;5090791;28;20498;-83
2022/08/14 00:50:34;;;;;;;4.47;2.87;;;16.80;99.90;;;;;;5082626;28;20179;-82
2022/08/14 00:53:00;;;;;;;3.60;3.30;;;16.80;99.90;;;;;;5077895;28;20399;-83
2022/08/14 00:55:27;;;;;;;7.63;3.10;;;16.80;99.90;;;;;;5093226;28;20177;-82
2022/08/14 01:00:39;;;;;;;8.27;3.73;;;16.70;99.90;;;;;;5082637;28;20422;-82
2022/08/14 01:03:07;;;;;;;6.97;3.37;;;16.70;99.90;;;;;;5089219;28;20443;-83
2022/08/14 01:05:34;;;;;;;4.00;3.70;;;16.60;99.90;;;;;;5078826;28;20442;-83
2022/08/14 01:08:00;;;;;;;4.07;3.30;;;16.50;99.90;;;;;;5077121;28;20429;-82
2022/08/14 01:13:15;;;;;;;4.57;3.70;;;16.60;99.90;;;;;;5092337;28;20421;-83
2022/08/14 01:15:45;;;;;;;4.93;3.17;;;16.60;99.90;;;;;;5089073;28;20449;-83
2022/08/14 01:21:03;;;;;;;5.50;3.27;;;16.50;99.90;;;;;;5077549;28;20394;-81
2022/08/14 01:23:30;;;;;;;3.60;3.30;;;16.50;99.90;;;;;;5077619;28;20395;-83
2022/08/14 01:25:57;;;;;;;7.43;3.20;;;16.40;99.90;;;;;;5077354;28;20445;-83
2022/08/14 01:28:25;;;;;;;3.90;3.47;;;16.40;99.90;;;;;;5076924;28;20523;-83
2022/08/14 01:30:54;;;;;;;3.80;3.23;;;16.40;99.90;;;;;;5093772;28;20441;-80
2022/08/14 01:33:21;;;;;;;5.20;3.73;;;16.40;99.90;;;;;;5088993;28;20422;-83
2022/08/14 01:35:46;;;;;;;5.30;3.53;;;16.30;99.90;;;;;;5085828;28;20422;-81
2022/08/14 01:38:14;;;;;;;4.13;3.67;;;16.20;99.90;;;;;;5085957;28;20472;-82
2022/08/14 01:40:39;;;;;;;3.87;3.53;;;16.20;99.90;;;;;;5095223;28;20180;-82
2022/08/14 01:43:16;;;;;;;3.43;3.13;;;16.20;99.90;;;;;;5091808;28;20429;-83
2022/08/14 01:45:48;;;;;;;8.32;3.88;;;16.00;99.90;;;;;;5089942;28;20225;-82
2022/08/14 01:48:14;;;;;;;5.30;3.70;;;16.00;99.90;;;;;;5087856;28;20693;-83
2022/08/14 01:50:41;;;;;;;4.40;3.40;;;16.00;99.90;;;;;;5091577;28;20426;-83
2022/08/14 01:53:07;;;;;;;5.60;3.40;;;16.00;99.90;;;;;;5093005;28;20425;-82
2022/08/14 01:55:33;;;;;;;7.33;3.30;;;16.00;99.90;;;;;;5091533;28;21109;-82
2022/08/14 01:58:00;;;;;;;3.63;3.30;;;16.00;99.90;;;;;;5090591;28;20450;-82
2022/08/14 02:00:27;;;;;;;5.00;3.40;;;15.90;99.90;;;;;;5095461;28;20402;-82
2022/08/14 02:02:55;;;;;;;5.07;3.20;;;15.90;99.90;;;;;;5098454;28;20916;-83
2022/08/14 02:05:28;;;;;;;6.63;3.53;;;15.90;99.90;;;;;;5091059;28;20203;-82
2022/08/14 02:07:54;;;;;;;3.07;2.77;;;15.80;99.90;;;;;;5091236;28;20676;-84
2022/08/14 02:10:20;;;;;;;5.07;3.78;;;15.80;99.90;;;;;;5100566;28;20409;-82
2022/08/14 02:12:47;;;;;;;4.70;3.43;;;15.80;99.90;;;;;;5098772;28;20270;-82
2022/08/14 02:15:13;;;;;;;3.90;3.50;;;15.80;99.90;;;;;;5090381;28;21223;-83
2022/08/14 02:17:39;;;;;;;6.13;3.40;;;15.80;99.90;;;;;;5096832;28;20473;-82
2022/08/14 02:20:07;;;;;;;3.58;3.22;;;15.80;99.90;;;;;;5095165;28;20433;-83
2022/08/14 02:22:33;;;;;;;5.47;3.17;;;15.80;99.90;;;;;;5089547;28;20592;-83
2022/08/14 02:24:59;;;;;;;3.30;3.10;;;15.80;99.90;;;;;;5099501;28;20450;-82
2022/08/14 02:27:26;;;;;;;4.40;3.20;;;15.80;99.90;;;;;;5103256;28;20449;-82
2022/08/14 02:29:54;;;;;;;4.33;3.83;;;15.90;99.90;;;;;;5110870;28;20192;-82
2022/08/14 02:32:20;;;;;;;5.18;4.00;;;15.80;99.90;;;;;;5092169;28;20701;-83
2022/08/14 02:34:46;;;;;;;3.60;3.13;;;15.80;99.90;;;;;;5089954;28;20218;-82
2022/08/14 02:37:12;;;;;;;5.57;4.03;;;15.80;99.90;;;;;;5091890;28;20453;-83
2022/08/14 02:39:41;;;;;;;4.50;4.10;;;15.70;99.90;;;;;;5097801;28;20174;-82
2022/08/14 02:42:11;;;;;;;4.18;3.75;;;15.70;99.90;;;;;;5092932;28;20427;-82
2022/08/14 02:44:38;;;;;;;4.28;3.88;;;15.60;99.90;;;;;;5089935;28;20207;-82
2022/08/14 02:47:03;;;;;;;5.55;4.50;;;15.50;99.90;;;;;;5080014;28;20186;-83
2022/08/14 02:49:29;;;;;;;4.17;3.77;;;15.50;99.90;;;;;;5094643;28;20267;-83
2022/08/14 02:51:56;;;;;;;4.03;3.60;;;15.40;99.90;;;;;;5095324;28;20267;-81
2022/08/14 02:54:25;;;;;;;4.07;3.70;;;15.40;99.90;;;;;;5094149;28;20171;-83
2022/08/14 02:56:53;;;;;;;6.22;4.22;;;15.40;99.90;;;;;;5094129;28;20954;-82
2022/08/14 02:59:19;;;;;;;5.82;4.50;;;15.40;99.90;;;;;;5097759;28;20644;-82
2022/08/14 03:01:45;;;;;;;4.30;3.90;;;15.50;99.90;;;;;;5095664;28;20206;-81
2022/08/14 03:04:12;;;;;;;5.40;3.80;;;15.50;99.90;;;;;;5098304;28;20953;-82
2022/08/14 03:06:42;;;;;;;4.32;3.90;;;15.50;99.90;;;;;;5088161;28;20441;-82
2022/08/14 03:09:08;;;;;;;4.72;4.32;;;15.50;99.90;;;;;;5092010;28;20161;-83
2022/08/14 03:11:34;;;;;;;3.60;3.30;;;15.50;99.90;;;;;;5099119;28;20171;-83
2022/08/14 03:13:59;;;;;;;4.07;3.43;;;15.40;99.90;;;;;;5095975;28;20250;-82
2022/08/14 03:16:26;;;;;;;6.80;3.80;;;15.40;99.90;;;;;;5094272;28;20202;-84
2022/08/14 03:18:53;;;;;;;4.82;4.32;;;15.50;99.90;;;;;;5090328;28;20256;-82
2022/08/14 03:21:22;;;;;;;4.80;3.33;;;15.50;99.90;;;;;;5088025;28;20735;-83
2022/08/14 03:23:50;;;;;;;4.60;3.85;;;15.50;99.90;;;;;;5088786;28;20184;-82
2022/08/14 03:26:18;;;;;;;5.82;4.20;;;15.50;99.90;;;;;;5100108;28;20211;-83
2022/08/14 03:28:49;;;;;;;5.00;4.20;;;15.50;99.90;;;;;;5093959;28;20207;-83
2022/08/14 03:31:17;;;;;;;5.95;3.70;;;15.50;99.90;;;;;;5094009;28;20510;-82
2022/08/14 03:33:43;;;;;;;5.00;4.50;;;15.60;99.90;;;;;;5090274;28;20292;-83
2022/08/14 03:36:13;;;;;;;4.93;4.37;;;15.60;99.90;;;;;;5093250;28;20463;-82
2022/08/14 03:38:41;;;;;;;5.40;4.78;;;15.50;99.90;;;;;;5093599;28;20220;-83
2022/08/14 03:41:15;;;;;;;5.40;4.35;;;15.50;99.90;;;;;;5103198;28;20487;-82
2022/08/14 03:43:46;;;;;;;4.60;4.20;;;15.50;99.90;;;;;;5097499;28;20188;-83
2022/08/14 03:46:12;;;;;;;4.75;3.70;;;15.40;99.90;;;;;;5093273;28;20497;-83
2022/08/14 03:48:42;;;;;;;4.82;3.35;;;15.40;99.90;;;;;;5091740;28;20284;-83
2022/08/14 03:51:10;;;;;;;3.88;3.25;;;15.30;99.90;;;;;;5090940;28;20659;-83
2022/08/14 03:53:44;;;;;;;7.82;3.67;;;15.30;99.90;;;;;;5088710;28;20750;-83
2022/08/14 03:56:15;;;;;;;4.65;4.07;;;15.20;99.90;;;;;;5099049;28;20199;-82
2022/08/14 03:58:44;;;;;;;4.07;3.75;;;15.20;99.90;;;;;;5096184;28;20241;-83
2022/08/14 04:01:11;;;;;;;4.65;3.90;;;15.20;99.90;;;;;;5093724;28;20430;-83
2022/08/14 04:03:37;;;;;;;4.63;3.47;;;15.10;99.90;;;;;;5091020;28;20665;-82
2022/08/14 04:06:03;;;;;;;5.93;3.70;;;15.20;99.90;;;;;;5089232;28;20553;-83
2022/08/14 04:08:29;;;;;;;5.10;4.07;;;15.20;99.90;;;;;;5085822;28;20223;-82
2022/08/14 04:10:56;;;;;;;5.13;3.50;;;15.10;99.90;;;;;;5097296;28;20449;-83
2022/08/14 04:13:21;;;;;;;3.75;3.42;;;15.00;99.90;;;;;;5099165;28;20199;-82
2022/08/14 04:15:48;;;;;;;4.23;3.43;;;14.90;99.90;;;;;;5092842;28;20661;-83
2022/08/14 04:18:13;;;;;;;3.53;3.22;;;14.90;99.90;;;;;;5090195;28;20779;-82
2022/08/14 04:20:41;;;;;;;4.37;3.70;;;15.00;99.90;;;;;;5087917;28;20215;-83
2022/08/14 04:23:07;;;;;;;5.00;4.00;;;15.00;99.90;;;;;;5089482;28;20174;-82
2022/08/14 04:25:35;;;;;;;3.97;3.67;;;15.10;99.90;;;;;;5094175;28;20210;-83
2022/08/14 04:28:02;;;;;;;5.45;4.28;;;15.20;99.90;;;;;;5094024;28;20195;-82
2022/08/14 04:30:29;;;;;;;4.43;4.03;;;15.20;99.90;;;;;;5096327;28;20659;-81
2022/08/14 04:32:56;;;;;;;5.30;4.80;;;15.30;99.90;;;;;;5097895;28;20582;-83
2022/08/14 04:35:23;;;;;;;4.55;3.63;;;15.60;99.90;;;;;;5090262;28;20179;-82
2022/08/14 04:43:37;;;;;;;6.33;3.50;;;18.20;99.90;;;;;;5097583;28;20990;-82
2022/08/14 04:46:15;;;;;;;4.83;4.43;;;19.50;99.90;;;;;;5093476;28;20906;-82
2022/08/14 04:48:40;;;;;;;6.47;4.13;;;20.80;99.90;;;;;;5091606;28;20481;-81
2022/08/14 04:51:11;;;;;;;3.93;3.53;;;22.10;99.90;;;;;;5092035;28;20455;-84
2022/08/14 04:53:41;;;;;;;3.73;3.43;;;23.20;95.90;;;;;;5088020;28;20172;-83
2022/08/14 04:56:07;;;;;;;4.33;3.80;;;24.20;91.70;;;;;;5096511;28;20430;-82
2022/08/14 04:58:33;;;;;;;3.67;3.43;;;25.20;88.50;;;;;;5098214;28;20452;-83
2022/08/14 05:01:01;;;;;;;7.43;5.97;;;26.40;81.70;;;;;;5096595;28;20198;-81
2022/08/14 05:03:30;;;;;;;4.70;4.30;;;27.50;72.60;;;;;;5096579;28;20911;-82
2022/08/14 05:05:59;;;;;;;7.60;4.67;;;28.60;67.40;;;;;;5087437;28;20466;-83
2022/08/14 05:08:25;;;;;;;5.60;3.90;;;29.80;61.30;;;;;;5085599;28;20453;-84
2022/08/14 05:10:54;;;;;;;6.23;4.03;;;30.60;56.50;;;;;;5091759;28;20435;-83
2022/08/14 05:13:25;;;;;;;6.10;4.30;;;30.80;54.30;;;;;;5098448;28;20168;-83
2022/08/14 05:15:52;;;;;;;4.93;4.50;;;31.00;52.80;;;;;;5094647;28;20430;-83
2022/08/14 05:18:23;;;;;;;5.43;4.20;;;31.70;51.40;;;;;;5093236;28;20467;-83
2022/08/14 05:20:53;;;;;;;4.60;4.20;;;32.60;50.10;;;;;;5088602;28;20501;-82
2022/08/14 05:23:21;;;;;;;7.10;4.43;;;33.40;47.60;;;;;;5086742;28;20433;-83
2022/08/14 05:25:50;;;;;;;5.47;4.90;;;34.40;46.00;;;;;;5084768;28;20520;-82
2022/08/14 05:28:18;;;;;;;4.90;4.50;;;35.30;44.40;;;;;;5099451;28;20544;-82
2022/08/14 05:30:52;;;;;;;5.20;4.90;;;36.50;42.50;;;;;;5097334;28;21271;-83
2022/08/14 05:33:19;;;;;;;6.77;6.17;;;37.50;41.10;;;;;;5091559;28;21127;-83
2022/08/14 05:35:47;;;;;;;6.50;6.10;;;38.30;38.50;;;;;;5084189;28;20456;-83
2022/08/14 05:38:15;;;;;;;7.63;6.93;;;39.20;37.30;;;;;;5088227;28;20979;-83
2022/08/14 05:40:45;;;;;;;12.13;8.67;;;39.90;36.00;;;;;;5084358;28;20515;-82
2022/08/14 05:43:11;;;;;;;9.23;8.40;;;40.40;34.70;;;;;;5098268;28;20436;-84
2022/08/14 05:45:37;;;;;;;8.60;8.10;;;40.50;33.20;;;;;;5099903;28;20544;-83
2022/08/14 05:48:04;;;;;;;8.93;8.43;;;39.80;33.10;;;;;;5097486;28;20433;-83
2022/08/14 05:50:30;;;;;;;10.03;9.33;;;39.50;34.00;;;;;;5097217;28;20302;-82
2022/08/14 05:52:57;;;;;;;10.23;9.53;;;39.40;35.00;;;;;;5091265;28;20439;-84
2022/08/14 05:55:23;;;;;;;10.70;9.87;;;40.20;34.40;;;;;;5089449;28;20450;-82
2022/08/14 05:57:57;;;;;;;10.77;10.00;;;40.60;34.10;;;;;;5089657;28;20944;-82
2022/08/14 06:00:27;;;;;;;11.17;10.37;;;40.20;33.50;;;;;;5100481;28;20183;-83
2022/08/14 06:02:55;;;;;;;12.23;10.50;;;40.40;33.20;;;;;;5101801;28;20850;-82
2022/08/14 06:05:21;;;;;;;11.30;10.50;;;40.50;33.30;;;;;;5094790;28;20714;-84
2022/08/14 06:07:47;;;;;;;11.47;10.67;;;41.30;32.40;;;;;;5096524;28;20463;-83
2022/08/14 06:10:13;;;;;;;12.10;11.37;;;42.00;31.40;;;;;;5091380;28;20421;-82
2022/08/14 06:12:39;;;;;;;12.23;11.10;;;42.20;30.70;;;;;;5089404;28;20187;-84
2022/08/14 06:15:06;;;;;;;10.93;10.20;;;41.80;30.40;;;;;;5099373;28;20183;-82
2022/08/14 06:17:41;;;;;;;11.30;10.60;;;41.30;30.30;;;;;;5098857;28;20509;-83
2022/08/14 06:20:07;;;;;;;14.57;10.73;;;41.30;30.80;;;;;;5098226;28;20433;-84
2022/08/14 06:22:32;;;;;;;11.50;10.70;;;41.00;30.00;;;;;;5095365;28;21006;-83
2022/08/14 06:24:58;;;;;;;11.93;10.67;;;40.50;30.90;;;;;;5089643;28;20505;-83
2022/08/14 06:27:23;;;;;;;11.20;10.30;;;39.80;31.10;;;;;;5085533;28;20230;-82
2022/08/14 06:29:49;;;;;;;10.20;9.50;;;39.00;31.80;;;;;;5098490;28;20189;-83
2022/08/14 06:32:15;;;;;;;9.77;9.07;;;38.50;31.70;;;;;;5097914;28;20184;-83
2022/08/14 06:34:40;;;;;;;12.30;9.27;;;37.80;32.60;;;;;;5098146;28;20185;-84
2022/08/14 06:37:06;;;;;;;12.23;11.23;;;37.90;32.90;;;;;;5091339;27;20211;-82
2022/08/14 06:39:32;;;;;;;11.00;10.17;;;37.70;32.50;;;;;;5088509;28;20228;-83
2022/08/14 06:41:58;;;;;;;10.27;9.27;;;37.50;33.40;;;;;;5087843;28;20517;-83
2022/08/14 06:44:24;;;;;;;9.87;8.80;;;36.60;33.70;;;;;;5093461;28;20549;-83
2022/08/14 06:46:50;;;;;;;10.30;9.40;;;37.00;33.70;;;;;;5100358;28;20465;-82
2022/08/14 06:49:15;;;;;;;9.13;8.53;;;37.10;34.10;;;;;;5100294;28;20190;-83
2022/08/14 06:51:45;;;;;;;9.67;8.87;;;36.30;34.40;;;;;;5098968;28;20187;-84
2022/08/14 06:54:12;;;;;;;12.90;9.20;;;36.90;34.80;;;;;;5092993;28;20211;-83
2022/08/14 06:56:38;;;;;;;10.37;9.47;;;39.50;32.20;;;;;;5088797;28;20436;-83
2022/08/14 06:59:04;;;;;;;10.47;9.87;;;39.50;32.60;;;;;;5082756;28;20807;-83
2022/08/14 07:06:58;;;;;;;9.90;9.20;;;40.00;31.30;;;;;;5097870;28;21060;-83
2022/08/14 07:09:23;;;;;;;9.10;8.60;;;40.60;31.20;;;;;;5093905;27;20448;-83
2022/08/14 07:11:50;;;;;;;10.40;9.80;;;42.40;30.20;;;;;;5089525;28;20187;-83
2022/08/14 07:14:16;;;;;;;11.57;10.67;;;43.80;28.30;;;;;;5087644;28;20164;-83
2022/08/14 07:16:41;;;;;;;10.93;10.33;;;42.80;27.50;;;;;;5094052;28;20450;-83
2022/08/14 07:19:08;;;;;;;11.23;10.63;;;42.70;27.90;;;;;;5099526;28;20709;-83
2022/08/14 07:21:34;;;;;;;10.90;10.20;;;41.80;28.40;;;;;;5096263;28;20221;-82
2022/08/14 07:23:59;;;;;;;10.93;10.33;;;41.60;28.50;;;;;;5092812;28;20910;-83
2022/08/14 07:26:25;;;;;;;10.10;9.30;;;41.60;28.50;;;;;;5091241;28;20210;-83
2022/08/14 07:28:50;;;;;;;10.57;10.07;;;41.20;28.70;;;;;;5088304;28;20565;-83
2022/08/14 07:31:16;;;;;;;10.80;10.20;;;40.90;28.70;;;;;;5088099;28;20189;-83
2022/08/14 07:33:47;;;;;;;10.87;9.80;;;40.90;28.80;;;;;;5096340;28;22097;-81
2022/08/14 07:36:15;;;;;;;11.37;10.13;;;40.90;29.20;;;;;;5096402;28;20186;-83
2022/08/14 07:38:41;;;;;;;11.17;10.17;;;41.40;29.00;;;;;;5093401;28;20558;-83
2022/08/14 07:41:09;;;;;;;10.67;9.93;;;41.10;29.00;;;;;;5090431;28;20433;-83
2022/08/14 07:43:35;;;;;;;10.57;9.97;;;41.10;29.00;;;;;;5089649;28;20640;-83
2022/08/14 07:46:02;;;;;;;10.97;10.17;;;40.60;29.30;;;;;;5086328;28;20465;-83
2022/08/14 07:48:28;;;;;;;11.23;10.53;;;40.80;29.40;;;;;;5103870;28;20473;-82
2022/08/14 07:50:54;;;;;;;11.70;10.53;;;41.00;29.40;;;;;;5098704;28;20429;-82
2022/08/14 07:53:20;;;;;;;12.87;11.97;;;41.90;29.20;;;;;;5096113;28;20430;-84
2022/08/14 07:55:47;;;;;;;9.93;9.30;;;42.80;28.00;;;;;;5088673;28;20204;-82
2022/08/14 07:58:13;;;;;;;11.10;10.60;;;43.20;28.30;;;;;;5091846;28;20449;-83
2022/08/14 08:00:39;;;;;;;11.60;11.07;;;43.70;27.40;;;;;;5082051;28;20539;-84
2022/08/14 08:03:10;;;;;;;11.77;11.07;;;43.20;27.60;;;;;;5102015;28;20466;-83
2022/08/14 08:05:38;;;;;;;11.70;11.10;;;43.10;27.20;;;;;;5097971;28;20199;-82
2022/08/14 08:08:05;;;;;;;11.70;10.90;;;42.70;27.40;;;;;;5093515;28;20450;-84
2022/08/14 08:10:32;;;;;;;11.63;10.93;;;41.50;28.70;;;;;;5092751;28;20433;-84
2022/08/14 08:13:12;;;;;;;12.33;11.53;;;41.70;28.50;;;;;;5090939;28;20433;-83
2022/08/14 08:15:40;;;;;;;11.80;11.10;;;41.80;28.80;;;;;;5085504;28;21024;-84
2022/08/14 08:18:08;;;;;;;11.47;10.90;;;42.50;28.60;;;;;;5085699;28;20476;-83
2022/08/14 08:20:36;;;;;;;13.40;12.60;;;42.50;28.30;;;;;;5103684;28;20515;-82
2022/08/14 08:23:04;;;;;;;13.37;12.13;;;42.30;28.60;;;;;;5097055;28;20511;-83
2022/08/14 08:25:32;;;;;;;11.10;10.47;;;40.90;28.00;;;;;;5096229;28;20456;-83
2022/08/14 08:28:20;;;;;;;11.50;10.87;;;41.20;29.50;;;;;;5089351;28;20449;-81
2022/08/14 08:30:53;;;;;;;12.33;11.53;;;41.50;28.50;;;;;;5087227;28;20441;-84
2022/08/14 08:33:20;;;;;;;12.20;11.50;;;41.40;28.60;;;;;;5084899;28;20428;-84
2022/08/14 08:35:46;;;;;;;12.77;11.97;;;41.50;28.60;;;;;;5100362;28;20450;-84
2022/08/14 08:38:16;;;;;;;12.37;11.57;;;41.10;29.00;;;;;;5095826;28;20448;-84
2022/08/14 08:40:44;;;;;;;11.63;11.03;;;40.70;28.90;;;;;;5093286;28;20446;-84
2022/08/14 08:43:21;;;;;;;10.50;10.00;;;40.40;29.40;;;;;;5093130;28;20557;-83
2022/08/14 08:46:01;;;;;;;11.40;10.83;;;40.50;29.40;;;;;;5087337;28;20460;-84
2022/08/14 08:48:29;;;;;;;11.57;10.97;;;40.40;29.00;;;;;;5084484;28;20481;-82
2022/08/14 08:50:58;;;;;;;11.77;11.00;;;41.10;28.80;;;;;;5096324;28;20436;-84
2022/08/14 08:53:31;;;;;;;11.10;10.40;;;41.50;27.70;;;;;;5097199;28;20861;-82
2022/08/14 08:55:57;;;;;;;11.10;10.40;;;41.70;27.50;;;;;;5093908;28;20466;-83
2022/08/14 08:58:22;;;;;;;11.50;10.60;;;41.80;28.10;;;;;;5087389;28;20463;-84
2022/08/14 09:00:52;;;;;;;11.80;11.00;;;42.00;28.90;;;;;;5086081;28;20179;-84
2022/08/14 09:03:20;;;;;;;11.67;10.90;;;41.70;28.00;;;;;;5086609;28;20191;-84
2022/08/14 09:06:02;;;;;;;11.50;10.70;;;40.40;28.40;;;;;;5094014;28;21009;-83
2022/08/14 09:08:33;;;;;;;11.00;10.40;;;39.20;28.90;;;;;;5102977;28;20449;-83
2022/08/14 09:11:03;;;;;;;11.10;10.50;;;39.10;30.00;;;;;;5099787;28;20791;-84
2022/08/14 09:13:30;;;;;;;10.63;10.03;;;39.60;30.10;;;;;;5090367;28;20420;-83
2022/08/14 09:15:55;;;;;;;12.13;11.43;;;39.40;30.40;;;;;;5092937;28;20494;-83
2022/08/14 09:18:22;;;;;;;12.57;11.50;;;38.80;30.40;;;;;;5088157;28;20503;-84
2022/08/14 09:20:53;;;;;;;11.83;11.10;;;38.30;30.20;;;;;;5087765;28;20190;-84
2022/08/14 09:23:19;;;;;;;10.93;10.23;;;37.30;31.90;;;;;;5082782;28;20441;-84
2022/08/14 09:25:48;;;;;;;12.17;11.47;;;38.30;31.80;;;;;;5091696;28;20483;-83
2022/08/14 09:28:15;;;;;;;11.70;11.00;;;39.20;31.00;;;;;;5091633;28;20211;-84
2022/08/14 09:30:51;;;;;;;11.83;11.13;;;39.50;29.90;;;;;;5092793;28;20417;-83
2022/08/14 09:33:50;;;;;;;10.40;9.90;;;40.20;29.90;;;;;;5078868;28;20425;-84
2022/08/14 09:36:50;;;;;;;11.43;10.60;;;39.40;29.30;;;;;;5072722;28;20390;-83
2022/08/14 09:39:24;;;;;;;11.50;10.70;;;38.80;29.60;;;;;;5071813;28;20413;-84
2022/08/14 09:42:14;;;;;;;10.93;10.33;;;38.60;30.00;;;;;;5073091;28;20435;-84
2022/08/14 09:45:00;;;;;;;11.50;10.90;;;40.00;29.80;;;;;;5072368;28;20410;-84
2022/08/14 09:47:42;;;;;;;11.33;10.73;;;41.10;28.60;;;;;;5072552;28;20422;-84
2022/08/14 09:50:24;;;;;;;11.50;10.90;;;41.20;27.90;;;;;;5073571;28;20414;-84
2022/08/14 09:52:54;;;;;;;11.00;10.50;;;40.00;27.70;;;;;;5071351;28;20912;-83
2022/08/14 09:55:22;;;;;;;10.83;10.33;;;38.60;28.70;;;;;;5073133;28;20410;-83
2022/08/14 09:57:49;;;;;;;10.30;9.70;;;37.40;29.20;;;;;;5079572;28;20520;-83
2022/08/14 10:00:17;;;;;;;11.57;10.77;;;36.50;29.90;;;;;;5089300;28;20459;-83
2022/08/14 10:03:01;;;;;;;10.30;9.73;;;36.80;30.50;;;;;;5090288;28;20435;-83
2022/08/14 10:05:29;;;;;;;10.20;9.60;;;36.70;30.30;;;;;;5093765;28;20493;-82
2022/08/14 10:07:56;;;;;;;9.80;9.10;;;36.90;30.40;;;;;;5096416;28;20485;-83
2022/08/14 10:10:35;;;;;;;10.40;9.80;;;36.40;30.40;;;;;;5089412;28;20498;-83
2022/08/14 10:13:02;;;;;;;9.97;9.20;;;36.20;30.30;;;;;;5073269;28;20403;-83
2022/08/14 10:15:29;;;;;;;10.87;10.10;;;36.70;30.20;;;;;;5084146;28;20443;-82
2022/08/14 10:18:13;;;;;;;10.20;9.70;;;36.50;30.70;;;;;;5095265;28;20462;-83
2022/08/14 10:20:57;;;;;;;10.30;9.60;;;35.60;32.30;;;;;;5071302;28;20925;-83
2022/08/14 10:23:26;;;;;;;10.20;9.60;;;35.90;32.10;;;;;;5073285;28;20909;-83
2022/08/14 10:26:05;;;;;;;9.20;8.70;;;36.20;32.00;;;;;;5071549;28;20461;-83
2022/08/14 10:28:43;;;;;;;10.00;9.43;;;35.70;31.10;;;;;;5075225;28;20937;-83
2022/08/14 10:31:26;;;;;;;9.63;9.10;;;34.80;31.80;;;;;;5076646;28;20411;-83
2022/08/14 10:34:19;;;;;;;9.37;8.70;;;33.80;33.30;;;;;;5074378;28;20395;-83
2022/08/14 10:36:48;;;;;;;8.67;8.13;;;32.40;34.70;;;;;;5076284;28;20483;-83
2022/08/14 10:39:17;;;;;;;12.00;7.97;;;32.40;35.30;;;;;;5075638;28;20548;-83
2022/08/14 10:41:45;;;;;;;7.73;7.23;;;31.40;36.10;;;;;;5076718;28;20460;-83
2022/08/14 10:44:16;;;;;;;8.47;7.97;;;31.00;37.90;;;;;;5075275;28;20417;-83
2022/08/14 10:46:46;;;;;;;8.50;7.90;;;31.00;37.30;;;;;;5089152;28;20516;-83
2022/08/14 10:49:22;;;;;;;7.90;7.37;;;30.90;37.70;;;;;;5093073;28;20412;-83
2022/08/14 10:52:05;;;;;;;8.70;7.90;;;30.90;37.90;;;;;;5089030;28;20442;-83
2022/08/14 10:54:38;;;;;;;8.13;7.53;;;31.10;38.20;;;;;;5100632;28;20756;-83
2022/08/14 10:57:25;;;;;;;9.43;8.70;;;31.40;36.60;;;;;;5116459;28;20421;-83
2022/08/14 10:59:54;;;;;;;8.20;7.70;;;31.40;36.50;;;;;;5113353;28;20538;-82
2022/08/14 11:02:21;;;;;;;7.70;7.20;;;31.30;36.30;;;;;;5116601;28;20405;-83
2022/08/14 11:05:08;;;;;;;7.50;6.80;;;31.10;36.40;;;;;;5115967;27;20393;-82
2022/08/14 11:07:38;;;;;;;7.53;7.03;;;31.10;36.70;;;;;;5114454;28;20539;-83
2022/08/14 11:10:10;;;;;;;7.50;7.10;;;30.90;36.80;;;;;;5116581;28;20416;-83
2022/08/14 11:12:49;;;;;;;7.43;6.93;;;31.20;36.80;;;;;;5115496;28;20421;-83
2022/08/14 11:15:21;;;;;;;7.00;6.50;;;31.20;36.10;;;;;;5116355;28;20393;-83
2022/08/14 11:17:48;;;;;;;7.27;6.77;;;31.10;36.40;;;;;;5103107;28;20991;-83
2022/08/14 11:20:25;;;;;;;8.10;7.43;;;31.00;36.50;;;;;;5092668;28;20902;-83
2022/08/14 11:22:56;;;;;;;7.67;7.20;;;30.80;36.70;;;;;;5095630;28;20414;-83
2022/08/14 11:25:25;;;;;;;7.90;7.30;;;30.90;37.00;;;;;;5095205;28;20449;-83
2022/08/14 11:27:53;;;;;;;6.97;6.57;;;31.00;36.90;;;;;;5094831;28;20426;-82
2022/08/14 11:30:23;;;;;;;7.50;6.90;;;31.20;36.70;;;;;;5094862;28;20420;-82
2022/08/14 11:32:50;;;;;;;7.50;7.00;;;31.30;36.30;;;;;;5093324;28;20410;-83
2022/08/14 11:35:25;;;;;;;8.20;7.70;;;31.40;36.50;;;;;;5092854;28;20406;-83
2022/08/14 11:37:53;;;;;;;8.27;7.67;;;31.70;35.70;;;;;;5095119;28;20445;-83
2022/08/14 11:40:20;;;;;;;8.10;7.40;;;31.80;35.50;;;;;;5095528;28;20414;-83
2022/08/14 11:42:47;;;;;;;6.73;6.33;;;32.00;35.50;;;;;;5095546;28;20406;-83
2022/08/14 11:45:14;;;;;;;7.07;6.67;;;32.20;36.00;;;;;;5095755;28;20443;-82
2022/08/14 11:47:40;;;;;;;8.37;7.57;;;32.50;35.20;;;;;;5094009;28;20423;-83
2022/08/14 11:50:18;;;;;;;7.83;7.23;;;32.40;34.50;;;;;;5093192;28;20472;-83
2022/08/14 11:52:44;;;;;;;7.27;6.77;;;32.20;34.30;;;;;;5089254;28;20691;-83
2022/08/14 11:55:12;;;;;;;7.17;6.60;;;31.80;33.90;;;;;;5088253;28;21488;-83
2022/08/14 11:57:39;;;;;;;7.43;6.93;;;32.00;35.20;;;;;;5096162;28;20461;-83
2022/08/14 12:00:11;;;;;;;8.73;8.03;;;32.30;33.40;;;;;;5088364;28;20491;-82
2022/08/14 12:02:47;;;;;;;8.57;7.77;;;32.00;33.60;;;;;;5094296;28;20843;-83
2022/08/14 12:05:13;;;;;;;7.50;6.90;;;32.00;34.30;;;;;;5094643;28;20501;-82
2022/08/14 12:07:48;;;;;;;8.40;7.70;;;32.10;34.10;;;;;;5093555;28;20455;-83
2022/08/14 12:10:18;;;;;;;7.60;7.10;;;32.10;34.50;;;;;;5095203;28;20215;-82
2022/08/14 12:12:43;;;;;;;7.77;7.17;;;32.30;34.30;;;;;;5094184;28;20964;-83
2022/08/14 12:15:10;;;;;;;7.63;7.20;;;32.40;33.40;;;;;;5094430;28;20441;-82
2022/08/14 12:17:47;;;;;;;7.50;7.10;;;32.30;33.60;;;;;;5093134;28;20587;-83
2022/08/14 12:20:13;;;;;;;8.37;7.73;;;32.40;33.30;;;;;;5093698;28;20490;-83
2022/08/14 12:22:44;;;;;;;8.60;7.90;;;32.30;33.70;;;;;;5094225;28;20411;-82
2022/08/14 12:25:19;;;;;;;7.80;7.10;;;32.20;33.90;;;;;;5092942;28;20438;-83
2022/08/14 12:27:50;;;;;;;7.77;7.27;;;32.20;33.60;;;;;;5092934;28;20769;-83
2022/08/14 12:30:39;;;;;;;7.67;7.17;;;32.30;34.00;;;;;;5092953;28;20412;-83
2022/08/14 12:33:24;;;;;;;7.90;7.30;;;32.30;33.70;;;;;;5093166;28;20760;-82
2022/08/14 12:35:51;;;;;;;7.47;7.03;;;31.90;33.80;;;;;;5091120;28;20878;-83
2022/08/14 12:38:16;;;;;;;7.47;6.97;;;31.80;33.80;;;;;;5091541;28;20430;-83
2022/08/14 12:40:50;;;;;;;8.27;7.73;;;32.10;34.80;;;;;;5094094;28;20414;-84
2022/08/14 12:43:18;;;;;;;8.67;7.97;;;32.40;34.10;;;;;;5094309;28;20208;-84
2022/08/14 12:45:53;;;;;;;7.67;7.00;;;32.70;33.70;;;;;;5095017;28;20985;-83
2022/08/14 12:48:20;;;;;;;8.07;7.37;;;32.70;33.60;;;;;;5093229;28;20429;-83
2022/08/14 12:50:46;;;;;;;8.37;7.57;;;32.70;33.60;;;;;;5091679;28;20418;-84
2022/08/14 12:53:13;;;;;;;7.97;7.43;;;32.80;33.80;;;;;;5094043;28;20415;-83
2022/08/14 12:55:40;;;;;;;8.37;7.73;;;33.00;33.40;;;;;;5093268;28;20497;-83
2022/08/14 12:58:07;;;;;;;8.10;7.50;;;33.20;33.30;;;;;;5093548;28;20426;-83
2022/08/14 13:00:36;;;;;;;7.67;7.17;;;32.90;33.00;;;;;;5091571;28;20773;-83
2022/08/14 13:03:03;;;;;;;8.67;7.97;;;32.80;33.40;;;;;;5093171;28;20410;-83
2022/08/14 13:05:32;;;;;;;8.40;7.80;;;32.70;33.30;;;;;;5093431;28;20445;-83
2022/08/14 13:07:59;;;;;;;8.43;7.73;;;32.70;33.50;;;;;;5092555;28;20425;-83
2022/08/14 13:10:25;;;;;;;9.00;8.20;;;32.70;33.40;;;;;;5093504;28;20479;-83